This is the latest recevied weather packets stored in our database for station/object KI8L. If no packets are shown the sender has not sent any weather packets the latest 10 day(s).
| Time | Temp. | Humidity | Pressure | Rain* | Wind** | Luminosity | Snow |
|---|---|---|---|---|---|---|---|
| 1778088956 | 12.78° C | 63% | 1014.3 hPa | 0 mm | - | 248 W/m² | - |
| 1778088652 | 12.78° C | 64% | 1014.2 hPa | 0 mm | - | 239 W/m² | - |
| 1778088350 | 12.22° C | 69% | 1014.2 hPa | 0 mm | - | 574 W/m² | - |
| 1778088046 | 12.22° C | 71% | 1014.2 hPa | 0 mm | - | 370 W/m² | - |
| 1778087743 | 12.22° C | 73% | 1014.1 hPa | 0 mm | - | 197 W/m² | - |
| 1778087441 | 12.78° C | 68% | 1014.2 hPa | 0 mm | - | 345 W/m² | - |
| 1778087138 | 12.78° C | 66% | 1014.2 hPa | 0 mm | - | 259 W/m² | - |
| 1778086836 | 12.78° C | 67% | 1013.8 hPa | 0 mm | - | 232 W/m² | - |
| 1778086534 | 12.78° C | 70% | 1014.2 hPa | 0 mm | - | 495 W/m² | - |
| 1778086230 | 12.22° C | 68% | 1014.5 hPa | 0 mm | - | 878 W/m² | - |
| 1778085927 | 12.78° C | 65% | 1014.2 hPa | 0 mm | - | 301 W/m² | - |
| 1778085624 | 12.78° C | 68% | 1014.5 hPa | 0 mm | - | 529 W/m² | - |
| 1778085320 | 12.22° C | 68% | 1014.6 hPa | 0 mm | - | 374 W/m² | - |
| 1778085016 | 12.78° C | 64% | 1014.4 hPa | 0 mm | - | 296 W/m² | - |
| 1778084713 | 12.22° C | 70% | 1014.4 hPa | 0 mm | - | 714 W/m² | - |
| 1778084410 | 11.67° C | 70% | 1014.1 hPa | 0 mm | - | 541 W/m² | - |
| 1778084107 | 11.67° C | 68% | 1014.3 hPa | 0 mm | - | 596 W/m² | - |
| 1778083804 | 12.22° C | 70% | 1014.3 hPa | 0 mm | - | 349 W/m² | - |
| 1778083502 | 11.67° C | 70% | 1014.1 hPa | 0 mm | - | 434 W/m² | - |
| 1778083199 | 11.67° C | 72% | 1014 hPa | 0 mm | - | 356 W/m² | - |
| 1778082897 | 12.22° C | 74% | 1013.8 hPa | 0 mm | - | 408 W/m² | - |
| 1778081789 | 12.22° C | 74% | 1014 hPa | 0 mm | - | 644 W/m² | - |
| 1778081486 | 11.67° C | 75% | 1014.1 hPa | 0 mm | - | 657 W/m² | - |
| 1778081182 | 11.67° C | 74% | 1013.8 hPa | 0 mm | - | 337 W/m² | - |
| 1778080880 | 11.11° C | 75% | 1014 hPa | 0 mm | - | 703 W/m² | - |
* Rain latest hour (hover to see other rain measurements)
** Current wind speed in m/s (hover to see current wind gust speed)